sensor_id;sensor_type;location;lat;lon;timestamp;P1;durP1;ratioP1;P2;durP2;ratioP2
33912;SDS011;20200;52.084;5.224;2023-02-05T00:01:34;78.61;;;52.9;;
33912;SDS011;20200;52.084;5.224;2023-02-05T00:03:11;69.41;;;47.3;;
33912;SDS011;20200;52.084;5.224;2023-02-05T00:04:48;72.11;;;49.5;;
33912;SDS011;20200;52.084;5.224;2023-02-05T00:08:03;85.4;;;56.9;;
33912;SDS011;20200;52.084;5.224;2023-02-05T00:09:40;80.61;;;52.7;;
33912;SDS011;20200;52.084;5.224;2023-02-05T00:11:17;83.8;;;53.6;;
33912;SDS011;20200;52.084;5.224;2023-02-05T00:12:53;79.3;;;54.7;;
33912;SDS011;20200;52.084;5.224;2023-02-05T00:16:07;79.11;;;51.0;;
33912;SDS011;20200;52.084;5.224;2023-02-05T00:17:45;66.5;;;47.7;;
33912;SDS011;20200;52.084;5.224;2023-02-05T00:19:22;82.8;;;54.3;;
33912;SDS011;20200;52.084;5.224;2023-02-05T00:22:35;78.0;;;52.0;;
33912;SDS011;20200;52.084;5.224;2023-02-05T00:24:12;90.1;;;57.3;;
33912;SDS011;20200;52.084;5.224;2023-02-05T00:25:48;87.2;;;56.5;;
33912;SDS011;20200;52.084;5.224;2023-02-05T00:29:03;69.61;;;46.4;;
33912;SDS011;20200;52.084;5.224;2023-02-05T00:30:40;73.2;;;47.7;;
33912;SDS011;20200;52.084;5.224;2023-02-05T00:32:17;84.2;;;54.0;;
33912;SDS011;20200;52.084;5.224;2023-02-05T00:33:54;80.7;;;53.7;;
33912;SDS011;20200;52.084;5.224;2023-02-05T00:37:07;71.91;;;48.9;;
33912;SDS011;20200;52.084;5.224;2023-02-05T00:38:44;66.6;;;46.7;;
33912;SDS011;20200;52.084;5.224;2023-02-05T00:40:23;63.0;;;44.3;;
33912;SDS011;20200;52.084;5.224;2023-02-05T00:43:36;64.7;;;45.0;;
33912;SDS011;20200;52.084;5.224;2023-02-05T00:45:13;64.6;;;43.1;;
33912;SDS011;20200;52.084;5.224;2023-02-05T00:46:49;68.91;;;47.0;;
33912;SDS011;20200;52.084;5.224;2023-02-05T00:50:02;79.3;;;52.2;;
33912;SDS011;20200;52.084;5.224;2023-02-05T00:51:39;80.2;;;53.6;;
33912;SDS011;20200;52.084;5.224;2023-02-05T00:53:16;88.3;;;58.6;;
33912;SDS011;20200;52.084;5.224;2023-02-05T00:54:53;75.41;;;52.5;;
33912;SDS011;20200;52.084;5.224;2023-02-05T00:58:06;61.9;;;44.2;;
33912;SDS011;20200;52.084;5.224;2023-02-05T00:59:43;85.3;;;53.4;;
33912;SDS011;20200;52.084;5.224;2023-02-05T01:01:20;59.9;;;42.5;;
33912;SDS011;20200;52.084;5.224;2023-02-05T01:04:34;67.41;;;46.9;;
33912;SDS011;20200;52.084;5.224;2023-02-05T01:06:11;77.61;;;52.4;;
33912;SDS011;20200;52.084;5.224;2023-02-05T01:07:47;89.2;;;56.0;;
33912;SDS011;20200;52.084;5.224;2023-02-05T01:09:24;85.6;;;55.2;;
33912;SDS011;20200;52.084;5.224;2023-02-05T01:12:42;69.5;;;50.2;;
33912;SDS011;20200;52.084;5.224;2023-02-05T01:14:19;67.3;;;46.0;;
33912;SDS011;20200;52.084;5.224;2023-02-05T01:15:55;60.8;;;43.9;;
33912;SDS011;20200;52.084;5.224;2023-02-05T01:19:09;60.0;;;43.1;;
33912;SDS011;20200;52.084;5.224;2023-02-05T01:20:45;58.9;;;41.5;;
33912;SDS011;20200;52.084;5.224;2023-02-05T01:22:21;58.6;;;41.2;;
33912;SDS011;20200;52.084;5.224;2023-02-05T01:25:37;57.7;;;42.1;;
33912;SDS011;20200;52.084;5.224;2023-02-05T01:27:14;56.2;;;40.4;;
33912;SDS011;20200;52.084;5.224;2023-02-05T01:28:51;57.9;;;41.7;;
33912;SDS011;20200;52.084;5.224;2023-02-05T01:30:27;58.1;;;40.9;;
33912;SDS011;20200;52.084;5.224;2023-02-05T01:33:40;58.5;;;40.1;;
33912;SDS011;20200;52.084;5.224;2023-02-05T01:35:17;62.6;;;44.2;;
33912;SDS011;20200;52.084;5.224;2023-02-05T01:36:54;71.3;;;47.1;;
33912;SDS011;20200;52.084;5.224;2023-02-05T01:40:08;68.3;;;46.7;;
33912;SDS011;20200;52.084;5.224;2023-02-05T01:41:49;63.3;;;44.4;;
33912;SDS011;20200;52.084;5.224;2023-02-05T01:43:26;56.9;;;42.1;;
33912;SDS011;20200;52.084;5.224;2023-02-05T01:45:23;56.4;;;39.6;;
33912;SDS011;20200;52.084;5.224;2023-02-05T01:47:59;69.3;;;47.9;;
33912;SDS011;20200;52.084;5.224;2023-02-05T01:49:38;59.8;;;42.7;;
33912;SDS011;20200;52.084;5.224;2023-02-05T01:51:18;54.1;;;39.71;;
33912;SDS011;20200;52.084;5.224;2023-02-05T01:54:41;57.4;;;40.81;;
33912;SDS011;20200;52.084;5.224;2023-02-05T01:56:22;60.8;;;42.5;;
33912;SDS011;20200;52.084;5.224;2023-02-05T01:58:04;54.9;;;38.6;;
33912;SDS011;20200;52.084;5.224;2023-02-05T01:59:41;54.3;;;37.6;;
33912;SDS011;20200;52.084;5.224;2023-02-05T02:02:57;60.3;;;43.0;;
33912;SDS011;20200;52.084;5.224;2023-02-05T02:04:37;52.3;;;37.6;;
33912;SDS011;20200;52.084;5.224;2023-02-05T02:06:16;58.9;;;41.0;;
33912;SDS011;20200;52.084;5.224;2023-02-05T02:09:31;53.3;;;39.31;;
33912;SDS011;20200;52.084;5.224;2023-02-05T02:11:09;59.4;;;40.1;;
33912;SDS011;20200;52.084;5.224;2023-02-05T02:12:50;58.0;;;41.0;;
33912;SDS011;20200;52.084;5.224;2023-02-05T02:14:30;56.2;;;40.9;;
33912;SDS011;20200;52.084;5.224;2023-02-05T02:17:47;55.6;;;40.6;;
33912;SDS011;20200;52.084;5.224;2023-02-05T02:19:28;50.9;;;37.21;;
33912;SDS011;20200;52.084;5.224;2023-02-05T02:21:29;47.6;;;34.21;;
33912;SDS011;20200;52.084;5.224;2023-02-05T02:23:39;48.2;;;36.9;;
33912;SDS011;20200;52.084;5.224;2023-02-05T02:25:46;53.0;;;35.0;;
33912;SDS011;20200;52.084;5.224;2023-02-05T02:28:00;49.1;;;36.31;;
33912;SDS011;20200;52.084;5.224;2023-02-05T02:29:45;55.7;;;39.4;;
33912;SDS011;20200;52.084;5.224;2023-02-05T02:31:27;51.1;;;36.31;;
33912;SDS011;20200;52.084;5.224;2023-02-05T02:33:08;46.6;;;33.4;;
33912;SDS011;20200;52.084;5.224;2023-02-05T02:36:40;52.9;;;38.4;;
33912;SDS011;20200;52.084;5.224;2023-02-05T02:38:28;55.8;;;39.21;;
33912;SDS011;20200;52.084;5.224;2023-02-05T02:40:10;57.0;;;37.21;;
33912;SDS011;20200;52.084;5.224;2023-02-05T02:41:55;47.6;;;34.1;;
33912;SDS011;20200;52.084;5.224;2023-02-05T02:43:39;48.6;;;34.21;;
33912;SDS011;20200;52.084;5.224;2023-02-05T02:47:06;49.0;;;33.8;;
33912;SDS011;20200;52.084;5.224;2023-02-05T02:48:49;44.9;;;32.21;;
33912;SDS011;20200;52.084;5.224;2023-02-05T02:50:32;43.8;;;31.5;;
33912;SDS011;20200;52.084;5.224;2023-02-05T02:52:16;50.9;;;34.1;;
33912;SDS011;20200;52.084;5.224;2023-02-05T02:55:37;50.2;;;34.1;;
33912;SDS011;20200;52.084;5.224;2023-02-05T02:57:17;53.6;;;35.81;;
33912;SDS011;20200;52.084;5.224;2023-02-05T02:58:57;53.6;;;35.81;;
33912;SDS011;20200;52.084;5.224;2023-02-05T03:00:39;42.4;;;28.9;;
33912;SDS011;20200;52.084;5.224;2023-02-05T03:03:57;40.1;;;26.1;;
33912;SDS011;20200;52.084;5.224;2023-02-05T03:05:39;36.4;;;25.0;;
33912;SDS011;20200;52.084;5.224;2023-02-05T03:07:19;36.1;;;25.4;;
33912;SDS011;20200;52.084;5.224;2023-02-05T03:09:05;34.71;;;24.9;;
33912;SDS011;20200;52.084;5.224;2023-02-05T03:10:49;32.4;;;22.3;;
33912;SDS011;20200;52.084;5.224;2023-02-05T03:14:09;32.8;;;23.2;;
33912;SDS011;20200;52.084;5.224;2023-02-05T03:15:46;32.71;;;22.2;;
33912;SDS011;20200;52.084;5.224;2023-02-05T03:17:23;34.1;;;23.1;;
33912;SDS011;20200;52.084;5.224;2023-02-05T03:20:41;29.0;;;20.2;;
33912;SDS011;20200;52.084;5.224;2023-02-05T03:22:24;32.3;;;22.6;;
33912;SDS011;20200;52.084;5.224;2023-02-05T03:24:01;31.4;;;21.5;;
33912;SDS011;20200;52.084;5.224;2023-02-05T03:25:40;28.2;;;19.2;;
33912;SDS011;20200;52.084;5.224;2023-02-05T03:28:55;27.2;;;16.9;;
33912;SDS011;20200;52.084;5.224;2023-02-05T03:30:37;27.9;;;17.0;;
33912;SDS011;20200;52.084;5.224;2023-02-05T03:32:27;27.9;;;16.0;;
33912;SDS011;20200;52.084;5.224;2023-02-05T03:34:18;23.7;;;15.7;;
33912;SDS011;20200;52.084;5.224;2023-02-05T03:36:08;22.4;;;13.9;;
33912;SDS011;20200;52.084;5.224;2023-02-05T03:39:49;20.3;;;14.7;;
33912;SDS011;20200;52.084;5.224;2023-02-05T03:42:12;19.3;;;13.4;;
33912;SDS011;20200;52.084;5.224;2023-02-05T03:44:03;19.61;;;12.1;;
33912;SDS011;20200;52.084;5.224;2023-02-05T03:45:48;18.5;;;11.5;;
33912;SDS011;20200;52.084;5.224;2023-02-05T03:47:36;19.41;;;11.5;;
33912;SDS011;20200;52.084;5.224;2023-02-05T03:49:24;19.0;;;10.4;;
33912;SDS011;20200;52.084;5.224;2023-02-05T03:51:22;19.11;;;10.7;;
33912;SDS011;20200;52.084;5.224;2023-02-05T03:53:10;14.8;;;9.71;;
33912;SDS011;20200;52.084;5.224;2023-02-05T03:54:59;19.11;;;10.3;;
33912;SDS011;20200;52.084;5.224;2023-02-05T03:58:30;15.1;;;9.4;;
33912;SDS011;20200;52.084;5.224;2023-02-05T04:00:11;16.11;;;8.5;;
33912;SDS011;20200;52.084;5.224;2023-02-05T04:01:49;15.0;;;8.71;;
33912;SDS011;20200;52.084;5.224;2023-02-05T04:03:26;15.6;;;9.4;;
33912;SDS011;20200;52.084;5.224;2023-02-05T04:06:40;19.11;;;9.5;;
33912;SDS011;20200;52.084;5.224;2023-02-05T04:08:17;16.3;;;8.71;;
33912;SDS011;20200;52.084;5.224;2023-02-05T04:09:53;15.5;;;8.5;;
33912;SDS011;20200;52.084;5.224;2023-02-05T04:11:31;17.8;;;9.71;;
33912;SDS011;20200;52.084;5.224;2023-02-05T04:14:45;15.1;;;8.81;;
33912;SDS011;20200;52.084;5.224;2023-02-05T04:16:21;16.3;;;8.81;;
33912;SDS011;20200;52.084;5.224;2023-02-05T04:17:58;17.3;;;9.0;;
33912;SDS011;20200;52.084;5.224;2023-02-05T04:21:11;16.3;;;8.4;;
33912;SDS011;20200;52.084;5.224;2023-02-05T04:22:47;17.5;;;9.4;;
33912;SDS011;20200;52.084;5.224;2023-02-05T04:24:24;22.1;;;9.81;;
33912;SDS011;20200;52.084;5.224;2023-02-05T04:27:37;18.7;;;10.6;;
33912;SDS011;20200;52.084;5.224;2023-02-05T04:29:14;15.3;;;9.81;;
33912;SDS011;20200;52.084;5.224;2023-02-05T04:30:50;17.7;;;10.21;;
33912;SDS011;20200;52.084;5.224;2023-02-05T04:32:27;20.9;;;12.2;;
33912;SDS011;20200;52.084;5.224;2023-02-05T04:35:41;20.6;;;11.2;;
33912;SDS011;20200;52.084;5.224;2023-02-05T04:37:18;20.9;;;10.7;;
33912;SDS011;20200;52.084;5.224;2023-02-05T04:38:55;20.6;;;11.9;;
33912;SDS011;20200;52.084;5.224;2023-02-05T04:42:08;16.5;;;10.5;;
33912;SDS011;20200;52.084;5.224;2023-02-05T04:43:45;19.91;;;11.9;;
33912;SDS011;20200;52.084;5.224;2023-02-05T04:45:21;18.41;;;11.2;;
33912;SDS011;20200;52.084;5.224;2023-02-05T04:46:58;19.7;;;12.0;;
33912;SDS011;20200;52.084;5.224;2023-02-05T04:50:13;22.1;;;12.1;;
33912;SDS011;20200;52.084;5.224;2023-02-05T04:51:50;21.1;;;12.4;;
33912;SDS011;20200;52.084;5.224;2023-02-05T04:53:26;22.7;;;14.0;;
33912;SDS011;20200;52.084;5.224;2023-02-05T04:56:40;21.1;;;12.4;;
33912;SDS011;20200;52.084;5.224;2023-02-05T04:58:16;26.4;;;15.2;;
33912;SDS011;20200;52.084;5.224;2023-02-05T04:59:52;17.5;;;12.4;;
33912;SDS011;20200;52.084;5.224;2023-02-05T05:03:05;16.0;;;10.5;;
33912;SDS011;20200;52.084;5.224;2023-02-05T05:04:42;15.2;;;9.71;;
33912;SDS011;20200;52.084;5.224;2023-02-05T05:06:18;8.71;;;7.0;;
33912;SDS011;20200;52.084;5.224;2023-02-05T05:07:57;9.9;;;7.3;;
33912;SDS011;20200;52.084;5.224;2023-02-05T05:11:13;9.21;;;6.9;;
33912;SDS011;20200;52.084;5.224;2023-02-05T05:12:52;12.2;;;7.5;;
33912;SDS011;20200;52.084;5.224;2023-02-05T05:14:28;9.31;;;7.1;;
33912;SDS011;20200;52.084;5.224;2023-02-05T05:17:43;9.0;;;6.7;;
33912;SDS011;20200;52.084;5.224;2023-02-05T05:19:19;10.6;;;6.6;;
33912;SDS011;20200;52.084;5.224;2023-02-05T05:20:57;9.1;;;6.3;;
33912;SDS011;20200;52.084;5.224;2023-02-05T05:22:34;9.6;;;6.0;;
33912;SDS011;20200;52.084;5.224;2023-02-05T05:25:46;8.31;;;5.5;;
33912;SDS011;20200;52.084;5.224;2023-02-05T05:27:24;6.7;;;4.8;;
33912;SDS011;20200;52.084;5.224;2023-02-05T05:29:01;7.5;;;4.5;;
33912;SDS011;20200;52.084;5.224;2023-02-05T05:32:17;6.8;;;4.2;;
33912;SDS011;20200;52.084;5.224;2023-02-05T05:33:55;8.4;;;4.1;;
33912;SDS011;20200;52.084;5.224;2023-02-05T05:35:31;8.71;;;3.8;;
33912;SDS011;20200;52.084;5.224;2023-02-05T05:38:45;7.9;;;3.9;;
33912;SDS011;20200;52.084;5.224;2023-02-05T05:43:45;14.1;;;4.1;;
33912;SDS011;20200;52.084;5.224;2023-02-05T05:45:22;17.91;;;3.8;;
33912;SDS011;20200;52.084;5.224;2023-02-05T05:46:59;21.5;;;3.9;;
33912;SDS011;20200;52.084;5.224;2023-02-05T05:48:35;23.2;;;3.8;;
33912;SDS011;20200;52.084;5.224;2023-02-05T05:50:11;27.8;;;4.8;;
33912;SDS011;20200;52.084;5.224;2023-02-05T05:53:25;26.8;;;3.9;;
33912;SDS011;20200;52.084;5.224;2023-02-05T05:55:02;22.0;;;4.2;;
33912;SDS011;20200;52.084;5.224;2023-02-05T05:56:39;22.9;;;3.9;;
33912;SDS011;20200;52.084;5.224;2023-02-05T05:58:16;22.8;;;3.8;;
33912;SDS011;20200;52.084;5.224;2023-02-05T06:01:30;23.2;;;3.9;;
33912;SDS011;20200;52.084;5.224;2023-02-05T06:03:06;18.11;;;3.4;;
33912;SDS011;20200;52.084;5.224;2023-02-05T06:04:45;19.3;;;3.5;;
33912;SDS011;20200;52.084;5.224;2023-02-05T06:07:59;21.9;;;3.7;;
33912;SDS011;20200;52.084;5.224;2023-02-05T06:09:35;19.5;;;3.5;;
33912;SDS011;20200;52.084;5.224;2023-02-05T06:11:12;22.2;;;3.2;;
33912;SDS011;20200;52.084;5.224;2023-02-05T06:12:51;18.61;;;3.7;;
33912;SDS011;20200;52.084;5.224;2023-02-05T06:16:04;15.4;;;3.0;;
33912;SDS011;20200;52.084;5.224;2023-02-05T06:17:41;19.11;;;3.5;;
33912;SDS011;20200;52.084;5.224;2023-02-05T06:19:18;15.2;;;2.9;;
33912;SDS011;20200;52.084;5.224;2023-02-05T06:22:33;16.4;;;3.3;;
33912;SDS011;20200;52.084;5.224;2023-02-05T06:24:10;16.9;;;3.0;;
33912;SDS011;20200;52.084;5.224;2023-02-05T06:25:46;20.9;;;3.3;;
33912;SDS011;20200;52.084;5.224;2023-02-05T06:27:23;25.6;;;3.7;;
33912;SDS011;20200;52.084;5.224;2023-02-05T06:30:38;18.61;;;3.3;;
33912;SDS011;20200;52.084;5.224;2023-02-05T06:32:14;18.3;;;3.9;;
33912;SDS011;20200;52.084;5.224;2023-02-05T06:33:51;14.0;;;3.0;;
33912;SDS011;20200;52.084;5.224;2023-02-05T06:37:06;21.9;;;3.4;;
33912;SDS011;20200;52.084;5.224;2023-02-05T06:38:42;19.7;;;3.6;;
33912;SDS011;20200;52.084;5.224;2023-02-05T06:40:21;18.61;;;3.2;;
33912;SDS011;20200;52.084;5.224;2023-02-05T06:43:33;18.2;;;3.0;;
33912;SDS011;20200;52.084;5.224;2023-02-05T06:45:09;20.11;;;3.3;;
33912;SDS011;20200;52.084;5.224;2023-02-05T06:46:45;16.8;;;3.3;;
33912;SDS011;20200;52.084;5.224;2023-02-05T06:48:23;22.2;;;3.4;;
33912;SDS011;20200;52.084;5.224;2023-02-05T06:51:35;20.3;;;3.7;;
33912;SDS011;20200;52.084;5.224;2023-02-05T06:53:12;18.11;;;3.6;;
33912;SDS011;20200;52.084;5.224;2023-02-05T06:54:49;25.3;;;3.8;;
33912;SDS011;20200;52.084;5.224;2023-02-05T06:58:01;23.4;;;4.0;;
33912;SDS011;20200;52.084;5.224;2023-02-05T06:59:38;23.4;;;3.7;;
33912;SDS011;20200;52.084;5.224;2023-02-05T07:01:15;23.9;;;3.9;;
33912;SDS011;20200;52.084;5.224;2023-02-05T07:04:31;18.91;;;3.8;;
33912;SDS011;20200;52.084;5.224;2023-02-05T07:06:07;21.5;;;3.8;;
33912;SDS011;20200;52.084;5.224;2023-02-05T07:07:45;23.7;;;3.7;;
33912;SDS011;20200;52.084;5.224;2023-02-05T07:09:23;22.2;;;4.2;;
33912;SDS011;20200;52.084;5.224;2023-02-05T07:12:37;23.4;;;4.3;;
33912;SDS011;20200;52.084;5.224;2023-02-05T07:14:13;20.2;;;3.3;;
33912;SDS011;20200;52.084;5.224;2023-02-05T07:15:50;26.2;;;4.3;;
33912;SDS011;20200;52.084;5.224;2023-02-05T07:19:03;28.0;;;4.5;;
33912;SDS011;20200;52.084;5.224;2023-02-05T07:20:40;26.9;;;4.3;;
33912;SDS011;20200;52.084;5.224;2023-02-05T07:22:17;22.1;;;4.41;;
33912;SDS011;20200;52.084;5.224;2023-02-05T07:23:54;24.8;;;4.61;;
33912;SDS011;20200;52.084;5.224;2023-02-05T07:27:11;28.6;;;4.8;;
33912;SDS011;20200;52.084;5.224;2023-02-05T07:28:48;28.0;;;5.0;;
33912;SDS011;20200;52.084;5.224;2023-02-05T07:30:25;27.2;;;4.91;;
33912;SDS011;20200;52.084;5.224;2023-02-05T07:33:40;30.4;;;4.91;;
33912;SDS011;20200;52.084;5.224;2023-02-05T07:35:17;30.1;;;4.8;;
33912;SDS011;20200;52.084;5.224;2023-02-05T07:36:53;26.1;;;4.91;;
33912;SDS011;20200;52.084;5.224;2023-02-05T07:38:30;26.7;;;5.11;;
33912;SDS011;20200;52.084;5.224;2023-02-05T07:41:44;26.2;;;4.8;;
33912;SDS011;20200;52.084;5.224;2023-02-05T07:43:21;26.5;;;4.61;;
33912;SDS011;20200;52.084;5.224;2023-02-05T07:44:58;30.3;;;5.3;;
33912;SDS011;20200;52.084;5.224;2023-02-05T07:48:12;29.3;;;5.2;;
33912;SDS011;20200;52.084;5.224;2023-02-05T07:49:48;31.6;;;6.0;;
33912;SDS011;20200;52.084;5.224;2023-02-05T07:51:25;30.5;;;5.0;;
33912;SDS011;20200;52.084;5.224;2023-02-05T07:54:39;32.4;;;6.1;;
33912;SDS011;20200;52.084;5.224;2023-02-05T07:56:16;35.31;;;6.5;;
33912;SDS011;20200;52.084;5.224;2023-02-05T07:57:53;37.5;;;5.7;;
33912;SDS011;20200;52.084;5.224;2023-02-05T07:59:30;32.3;;;5.8;;
33912;SDS011;20200;52.084;5.224;2023-02-05T08:02:43;34.31;;;6.1;;
33912;SDS011;20200;52.084;5.224;2023-02-05T08:04:20;31.4;;;5.7;;
33912;SDS011;20200;52.084;5.224;2023-02-05T08:05:57;28.4;;;6.0;;
33912;SDS011;20200;52.084;5.224;2023-02-05T08:09:15;32.3;;;6.3;;
33912;SDS011;20200;52.084;5.224;2023-02-05T08:10:54;31.6;;;5.4;;
33912;SDS011;20200;52.084;5.224;2023-02-05T08:12:31;27.0;;;5.7;;
33912;SDS011;20200;52.084;5.224;2023-02-05T08:14:08;30.8;;;5.6;;
33912;SDS011;20200;52.084;5.224;2023-02-05T08:17:22;37.9;;;6.7;;
33912;SDS011;20200;52.084;5.224;2023-02-05T08:18:58;33.9;;;6.4;;
33912;SDS011;20200;52.084;5.224;2023-02-05T08:20:36;32.3;;;6.3;;
33912;SDS011;20200;52.084;5.224;2023-02-05T08:23:48;30.0;;;6.1;;
33912;SDS011;20200;52.084;5.224;2023-02-05T08:25:25;35.21;;;6.3;;
33912;SDS011;20200;52.084;5.224;2023-02-05T08:27:02;36.31;;;6.6;;
33912;SDS011;20200;52.084;5.224;2023-02-05T08:30:15;30.1;;;6.2;;
33912;SDS011;20200;52.084;5.224;2023-02-05T08:31:53;35.31;;;6.5;;
33912;SDS011;20200;52.084;5.224;2023-02-05T08:33:31;44.8;;;7.3;;
33912;SDS011;20200;52.084;5.224;2023-02-05T08:35:07;39.71;;;6.4;;
33912;SDS011;20200;52.084;5.224;2023-02-05T08:38:20;44.7;;;7.6;;
33912;SDS011;20200;52.084;5.224;2023-02-05T08:39:56;39.81;;;7.4;;
33912;SDS011;20200;52.084;5.224;2023-02-05T08:41:32;43.7;;;8.0;;
33912;SDS011;20200;52.084;5.224;2023-02-05T08:44:47;44.5;;;8.4;;
33912;SDS011;20200;52.084;5.224;2023-02-05T08:46:25;41.2;;;8.0;;
33912;SDS011;20200;52.084;5.224;2023-02-05T08:48:02;47.7;;;8.0;;
33912;SDS011;20200;52.084;5.224;2023-02-05T08:49:38;46.2;;;8.2;;
33912;SDS011;20200;52.084;5.224;2023-02-05T08:52:55;40.9;;;8.71;;
33912;SDS011;20200;52.084;5.224;2023-02-05T08:54:32;49.6;;;8.81;;
33912;SDS011;20200;52.084;5.224;2023-02-05T08:56:09;49.9;;;9.1;;
33912;SDS011;20200;52.084;5.224;2023-02-05T08:59:23;45.6;;;8.9;;
33912;SDS011;20200;52.084;5.224;2023-02-05T09:01:00;51.2;;;9.71;;
33912;SDS011;20200;52.084;5.224;2023-02-05T09:02:39;50.5;;;9.0;;
33912;SDS011;20200;52.084;5.224;2023-02-05T09:05:56;54.5;;;10.1;;
33912;SDS011;20200;52.084;5.224;2023-02-05T09:07:33;55.9;;;10.21;;
33912;SDS011;20200;52.084;5.224;2023-02-05T09:09:10;53.7;;;9.21;;
33912;SDS011;20200;52.084;5.224;2023-02-05T09:10:48;56.6;;;10.4;;
33912;SDS011;20200;52.084;5.224;2023-02-05T09:14:01;48.3;;;9.31;;
33912;SDS011;20200;52.084;5.224;2023-02-05T09:15:40;51.1;;;10.0;;
33912;SDS011;20200;52.084;5.224;2023-02-05T09:17:18;54.3;;;10.1;;
33912;SDS011;20200;52.084;5.224;2023-02-05T09:20:33;47.9;;;9.4;;
33912;SDS011;20200;52.084;5.224;2023-02-05T09:22:10;53.3;;;9.81;;
33912;SDS011;20200;52.084;5.224;2023-02-05T09:23:47;53.7;;;9.81;;
33912;SDS011;20200;52.084;5.224;2023-02-05T09:25:24;46.7;;;9.5;;
33912;SDS011;20200;52.084;5.224;2023-02-05T09:28:40;49.4;;;9.6;;
33912;SDS011;20200;52.084;5.224;2023-02-05T09:30:17;52.7;;;10.3;;
33912;SDS011;20200;52.084;5.224;2023-02-05T09:31:53;54.3;;;9.81;;
33912;SDS011;20200;52.084;5.224;2023-02-05T09:35:07;45.7;;;9.0;;
33912;SDS011;20200;52.084;5.224;2023-02-05T09:36:43;45.4;;;9.6;;
33912;SDS011;20200;52.084;5.224;2023-02-05T09:38:19;52.0;;;9.6;;
33912;SDS011;20200;52.084;5.224;2023-02-05T09:39:56;52.6;;;9.81;;
33912;SDS011;20200;52.084;5.224;2023-02-05T09:43:23;51.8;;;9.31;;
33912;SDS011;20200;52.084;5.224;2023-02-05T09:45:15;44.5;;;9.31;;
33912;SDS011;20200;52.084;5.224;2023-02-05T09:47:09;48.7;;;9.4;;
33912;SDS011;20200;52.084;5.224;2023-02-05T09:48:53;51.8;;;9.31;;
33912;SDS011;20200;52.084;5.224;2023-02-05T09:50:37;54.8;;;9.6;;
33912;SDS011;20200;52.084;5.224;2023-02-05T09:53:56;52.8;;;9.5;;
33912;SDS011;20200;52.084;5.224;2023-02-05T09:55:41;49.0;;;9.6;;
33912;SDS011;20200;52.084;5.224;2023-02-05T09:57:23;45.4;;;9.4;;
33912;SDS011;20200;52.084;5.224;2023-02-05T09:59:10;46.2;;;9.6;;
33912;SDS011;20200;52.084;5.224;2023-02-05T10:00:52;47.3;;;9.5;;
33912;SDS011;20200;52.084;5.224;2023-02-05T10:04:21;54.0;;;9.5;;
33912;SDS011;20200;52.084;5.224;2023-02-05T10:06:04;51.9;;;9.4;;
33912;SDS011;20200;52.084;5.224;2023-02-05T10:08:01;46.9;;;9.21;;
33912;SDS011;20200;52.084;5.224;2023-02-05T10:09:53;51.2;;;9.9;;
33912;SDS011;20200;52.084;5.224;2023-02-05T10:12:35;54.4;;;10.4;;
33912;SDS011;20200;52.084;5.224;2023-02-05T10:14:38;49.5;;;9.9;;
33912;SDS011;20200;52.084;5.224;2023-02-05T10:19:21;49.0;;;10.1;;
33912;SDS011;20200;52.084;5.224;2023-02-05T10:21:27;46.8;;;10.0;;
33912;SDS011;20200;52.084;5.224;2023-02-05T10:23:26;47.1;;;9.21;;
33912;SDS011;20200;52.084;5.224;2023-02-05T10:25:31;50.7;;;10.0;;
33912;SDS011;20200;52.084;5.224;2023-02-05T10:27:18;46.4;;;9.4;;
33912;SDS011;20200;52.084;5.224;2023-02-05T10:29:00;54.3;;;10.21;;
33912;SDS011;20200;52.084;5.224;2023-02-05T10:30:54;48.6;;;10.6;;
33912;SDS011;20200;52.084;5.224;2023-02-05T10:32:40;47.2;;;9.1;;
33912;SDS011;20200;52.084;5.224;2023-02-05T10:34:33;51.8;;;9.9;;
33912;SDS011;20200;52.084;5.224;2023-02-05T10:36:23;50.4;;;9.81;;
33912;SDS011;20200;52.084;5.224;2023-02-05T10:39:46;47.5;;;9.21;;
33912;SDS011;20200;52.084;5.224;2023-02-05T10:43:13;49.9;;;9.9;;
33912;SDS011;20200;52.084;5.224;2023-02-05T10:45:00;43.5;;;9.5;;
33912;SDS011;20200;52.084;5.224;2023-02-05T10:46:51;43.5;;;9.5;;
33912;SDS011;20200;52.084;5.224;2023-02-05T10:50:22;45.3;;;9.1;;
33912;SDS011;20200;52.084;5.224;2023-02-05T10:52:03;41.8;;;8.71;;
33912;SDS011;20200;52.084;5.224;2023-02-05T10:53:40;43.6;;;9.21;;
33912;SDS011;20200;52.084;5.224;2023-02-05T10:55:17;50.3;;;8.81;;
33912;SDS011;20200;52.084;5.224;2023-02-05T10:58:35;48.4;;;9.9;;
33912;SDS011;20200;52.084;5.224;2023-02-05T11:00:19;45.4;;;9.5;;
33912;SDS011;20200;52.084;5.224;2023-02-05T11:02:00;46.2;;;9.1;;
33912;SDS011;20200;52.084;5.224;2023-02-05T11:03:51;44.7;;;9.6;;
33912;SDS011;20200;52.084;5.224;2023-02-05T11:07:15;49.8;;;9.5;;
33912;SDS011;20200;52.084;5.224;2023-02-05T11:09:01;49.0;;;9.1;;
33912;SDS011;20200;52.084;5.224;2023-02-05T11:10:38;47.0;;;9.4;;
33912;SDS011;20200;52.084;5.224;2023-02-05T11:12:16;46.4;;;9.4;;
33912;SDS011;20200;52.084;5.224;2023-02-05T11:14:05;44.9;;;8.6;;
33912;SDS011;20200;52.084;5.224;2023-02-05T11:17:32;56.2;;;9.6;;
33912;SDS011;20200;52.084;5.224;2023-02-05T11:19:16;49.1;;;8.9;;
33912;SDS011;20200;52.084;5.224;2023-02-05T11:20:57;44.3;;;9.1;;
33912;SDS011;20200;52.084;5.224;2023-02-05T11:22:36;43.2;;;9.1;;
33912;SDS011;20200;52.084;5.224;2023-02-05T11:26:06;43.8;;;8.9;;
33912;SDS011;20200;52.084;5.224;2023-02-05T11:27:51;44.9;;;9.9;;
33912;SDS011;20200;52.084;5.224;2023-02-05T11:29:29;46.8;;;9.21;;
33912;SDS011;20200;52.084;5.224;2023-02-05T11:31:22;43.8;;;8.6;;
33912;SDS011;20200;52.084;5.224;2023-02-05T11:33:15;47.7;;;8.5;;
33912;SDS011;20200;52.084;5.224;2023-02-05T11:35:08;47.8;;;8.81;;
33912;SDS011;20200;52.084;5.224;2023-02-05T11:38:33;45.3;;;9.1;;
33912;SDS011;20200;52.084;5.224;2023-02-05T11:40:19;45.7;;;8.2;;
33912;SDS011;20200;52.084;5.224;2023-02-05T11:42:02;40.4;;;8.81;;
33912;SDS011;20200;52.084;5.224;2023-02-05T11:43:45;39.1;;;8.31;;
33912;SDS011;20200;52.084;5.224;2023-02-05T11:45:26;42.0;;;7.7;;
33912;SDS011;20200;52.084;5.224;2023-02-05T11:48:43;42.4;;;8.31;;
33912;SDS011;20200;52.084;5.224;2023-02-05T11:50:31;39.0;;;8.0;;
33912;SDS011;20200;52.084;5.224;2023-02-05T11:52:09;40.4;;;8.2;;
33912;SDS011;20200;52.084;5.224;2023-02-05T11:53:49;43.9;;;8.81;;
33912;SDS011;20200;52.084;5.224;2023-02-05T11:57:22;43.8;;;8.1;;
33912;SDS011;20200;52.084;5.224;2023-02-05T11:59:15;44.6;;;9.4;;
33912;SDS011;20200;52.084;5.224;2023-02-05T12:00:58;44.1;;;8.4;;
33912;SDS011;20200;52.084;5.224;2023-02-05T12:02:37;41.6;;;8.31;;
33912;SDS011;20200;52.084;5.224;2023-02-05T12:04:19;44.2;;;8.6;;
33912;SDS011;20200;52.084;5.224;2023-02-05T12:07:52;42.4;;;8.31;;
33912;SDS011;20200;52.084;5.224;2023-02-05T12:09:35;40.6;;;8.2;;
33912;SDS011;20200;52.084;5.224;2023-02-05T12:12:19;43.0;;;8.4;;
33912;SDS011;20200;52.084;5.224;2023-02-05T12:14:06;43.5;;;9.31;;
33912;SDS011;20200;52.084;5.224;2023-02-05T12:15:56;39.81;;;7.5;;
33912;SDS011;20200;52.084;5.224;2023-02-05T12:17:41;37.21;;;8.4;;
33912;SDS011;20200;52.084;5.224;2023-02-05T12:19:29;44.6;;;8.2;;
33912;SDS011;20200;52.084;5.224;2023-02-05T12:21:16;40.9;;;8.1;;
33912;SDS011;20200;52.084;5.224;2023-02-05T12:23:08;42.0;;;8.1;;
33912;SDS011;20200;52.084;5.224;2023-02-05T12:26:30;42.0;;;8.1;;
33912;SDS011;20200;52.084;5.224;2023-02-05T12:28:15;44.4;;;7.8;;
33912;SDS011;20200;52.084;5.224;2023-02-05T12:30:05;47.2;;;9.0;;
33912;SDS011;20200;52.084;5.224;2023-02-05T12:31:59;43.8;;;7.7;;
33912;SDS011;20200;52.084;5.224;2023-02-05T12:33:50;42.9;;;8.81;;
33912;SDS011;20200;52.084;5.224;2023-02-05T12:36:05;39.9;;;8.1;;
33912;SDS011;20200;52.084;5.224;2023-02-05T12:37:55;44.5;;;8.4;;
33912;SDS011;20200;52.084;5.224;2023-02-05T12:41:27;43.0;;;8.31;;
33912;SDS011;20200;52.084;5.224;2023-02-05T12:43:21;45.3;;;8.6;;
33912;SDS011;20200;52.084;5.224;2023-02-05T12:45:15;42.4;;;7.8;;
33912;SDS011;20200;52.084;5.224;2023-02-05T12:47:18;45.8;;;9.21;;